createdAt,value
2022-12-12T00:00:50.367Z,0.00
2022-12-12T00:01:50.363Z,0.00
2022-12-12T00:02:50.471Z,0.00
2022-12-12T00:03:50.453Z,0.00
2022-12-12T00:04:50.351Z,0.00
2022-12-12T00:05:50.318Z,0.00
2022-12-12T00:06:50.354Z,0.00
2022-12-12T00:07:50.311Z,0.00
2022-12-12T00:08:50.279Z,0.00
2022-12-12T00:09:50.275Z,0.00
2022-12-12T00:10:50.256Z,0.00
2022-12-12T00:11:50.250Z,0.00
2022-12-12T00:12:50.281Z,0.00
2022-12-12T00:13:50.237Z,0.00
2022-12-12T00:14:50.217Z,0.00
2022-12-12T00:15:50.226Z,0.00
2022-12-12T00:16:50.201Z,0.00
2022-12-12T00:17:50.200Z,0.00
2022-12-12T00:18:50.167Z,0.00
2022-12-12T00:19:50.296Z,0.00
2022-12-12T00:20:50.162Z,0.00
2022-12-12T00:21:50.145Z,0.00
2022-12-12T00:22:50.139Z,0.00
2022-12-12T00:23:50.140Z,0.00
2022-12-12T00:24:50.215Z,0.00
2022-12-12T00:25:50.105Z,0.00
2022-12-12T00:26:50.091Z,0.00
2022-12-12T00:27:50.073Z,0.00
2022-12-12T00:28:50.112Z,0.00
2022-12-12T00:29:50.084Z,0.00
2022-12-12T00:30:50.060Z,0.00
2022-12-12T00:31:50.029Z,0.00
2022-12-12T00:32:50.021Z,0.00
2022-12-12T00:33:50.052Z,0.00
2022-12-12T00:34:50.035Z,0.00
2022-12-12T00:35:50.001Z,0.00
2022-12-12T00:36:49.976Z,0.00
2022-12-12T00:37:49.985Z,0.00
2022-12-12T00:38:49.954Z,0.00
2022-12-12T00:39:50.014Z,0.00
2022-12-12T00:40:49.933Z,0.00
2022-12-12T00:41:49.945Z,0.00
2022-12-12T00:42:49.903Z,0.00
2022-12-12T00:43:49.904Z,0.00
2022-12-12T00:44:49.941Z,0.00
2022-12-12T00:45:49.873Z,0.00
2022-12-12T00:46:49.976Z,0.00
2022-12-12T00:47:49.859Z,0.00
2022-12-12T00:48:50.796Z,0.00
2022-12-12T00:49:49.835Z,0.00
2022-12-12T00:50:49.824Z,0.00
2022-12-12T00:51:49.844Z,0.00
2022-12-12T00:52:49.805Z,0.00
2022-12-12T00:53:49.785Z,0.00
2022-12-12T00:54:49.780Z,0.00
2022-12-12T00:55:49.766Z,0.00
2022-12-12T00:56:49.775Z,0.00
2022-12-12T00:57:49.765Z,0.00
2022-12-12T00:58:49.785Z,0.00
2022-12-12T00:59:49.723Z,0.00
2022-12-12T01:00:49.707Z,0.00
2022-12-12T01:01:49.739Z,0.00
2022-12-12T01:02:49.738Z,0.00
2022-12-12T01:03:49.668Z,0.00
2022-12-12T01:04:49.868Z,0.00
2022-12-12T01:05:50.633Z,0.00
2022-12-12T01:06:49.798Z,0.00
2022-12-12T01:07:49.681Z,0.00
2022-12-12T01:08:49.631Z,0.00
2022-12-12T01:09:49.664Z,0.00
2022-12-12T01:10:49.641Z,0.00
2022-12-12T01:11:49.591Z,0.00
2022-12-12T01:12:49.578Z,0.00
2022-12-12T01:13:49.600Z,0.00
2022-12-12T01:14:49.560Z,0.00
2022-12-12T01:15:49.576Z,0.00
2022-12-12T01:16:49.545Z,0.00
2022-12-12T01:17:49.549Z,0.00
2022-12-12T01:18:49.540Z,0.00
2022-12-12T01:19:49.618Z,0.00
2022-12-12T01:20:49.492Z,0.00
2022-12-12T01:21:49.481Z,0.00
2022-12-12T01:22:49.499Z,0.00
2022-12-12T01:23:49.523Z,0.00
2022-12-12T01:24:49.450Z,0.00
2022-12-12T01:25:50.380Z,0.00
2022-12-12T01:26:49.449Z,0.00
2022-12-12T01:27:49.421Z,0.00
2022-12-12T01:28:49.401Z,0.00
2022-12-12T01:29:49.558Z,0.00
2022-12-12T01:30:49.401Z,0.00
2022-12-12T01:31:49.376Z,0.00
2022-12-12T01:32:49.369Z,0.00
2022-12-12T01:33:49.354Z,0.00
2022-12-12T01:34:49.341Z,0.00
2022-12-12T01:35:49.372Z,0.00
2022-12-12T01:36:49.330Z,0.00
2022-12-12T01:37:49.323Z,0.00
2022-12-12T01:38:49.296Z,0.00
2022-12-12T01:39:49.335Z,0.00
2022-12-12T01:40:49.272Z,0.00
2022-12-12T01:41:49.260Z,0.00
2022-12-12T01:42:49.264Z,0.00
2022-12-12T01:43:49.234Z,0.00
2022-12-12T01:44:49.236Z,0.00
2022-12-12T01:45:49.290Z,0.00
2022-12-12T01:46:49.360Z,0.00
2022-12-12T01:47:49.226Z,0.00
2022-12-12T01:48:49.184Z,0.00
2022-12-12T01:49:49.177Z,0.00
2022-12-12T01:50:49.182Z,0.00
2022-12-12T01:51:49.152Z,0.00
2022-12-12T01:52:49.197Z,0.00
2022-12-12T01:53:49.129Z,0.00
2022-12-12T01:54:49.126Z,0.00
2022-12-12T01:55:49.173Z,0.00
2022-12-12T01:56:49.116Z,0.00
2022-12-12T01:57:49.076Z,0.00
2022-12-12T01:58:49.100Z,0.00
2022-12-12T01:59:49.226Z,0.00
2022-12-12T02:00:49.102Z,0.00
2022-12-12T02:01:49.084Z,0.00
2022-12-12T02:02:49.040Z,0.00
2022-12-12T02:03:49.014Z,0.00
2022-12-12T02:04:49.025Z,0.00
2022-12-12T02:05:49.027Z,0.00
2022-12-12T02:06:49.008Z,0.00
2022-12-12T02:07:49.033Z,0.00
2022-12-12T02:08:48.968Z,0.00
2022-12-12T02:09:48.960Z,0.00
2022-12-12T02:10:48.955Z,0.00
2022-12-12T02:11:48.961Z,0.00
2022-12-12T02:12:48.966Z,0.00
2022-12-12T02:13:49.850Z,0.00
2022-12-12T02:14:48.909Z,0.00
2022-12-12T02:15:48.912Z,0.00
2022-12-12T02:16:48.919Z,0.00
2022-12-12T02:17:48.870Z,0.00
2022-12-12T02:18:48.858Z,0.00
2022-12-12T02:19:48.843Z,0.00
2022-12-12T02:20:48.840Z,0.00
2022-12-12T02:21:48.860Z,0.00
2022-12-12T02:22:48.823Z,0.00
2022-12-12T02:23:48.810Z,0.00
2022-12-12T02:24:48.810Z,0.00
2022-12-12T02:25:48.794Z,0.00
2022-12-12T02:26:48.775Z,0.00
2022-12-12T02:27:48.781Z,0.00
2022-12-12T02:28:48.754Z,0.00
2022-12-12T02:29:48.744Z,0.00
2022-12-12T02:30:48.759Z,0.00
2022-12-12T02:31:48.741Z,0.00
2022-12-12T02:32:48.711Z,0.00
2022-12-12T02:33:48.721Z,0.00
2022-12-12T02:34:48.693Z,0.00
2022-12-12T02:35:48.671Z,0.00
2022-12-12T02:36:48.674Z,0.00
2022-12-12T02:37:48.689Z,0.00
2022-12-12T02:38:48.641Z,0.00
2022-12-12T02:39:48.621Z,0.00
2022-12-12T02:40:48.632Z,0.00
2022-12-12T02:41:48.603Z,0.00
2022-12-12T02:42:48.635Z,0.00
2022-12-12T02:43:48.623Z,0.00
2022-12-12T02:44:48.574Z,0.00
2022-12-12T02:45:48.555Z,0.00
2022-12-12T02:46:48.609Z,0.00
2022-12-12T02:47:48.546Z,0.00
2022-12-12T02:48:48.571Z,0.00
2022-12-12T02:49:48.525Z,0.00
2022-12-12T02:50:48.544Z,0.00
2022-12-12T02:51:48.499Z,0.00
2022-12-12T02:52:48.484Z,0.00
2022-12-12T02:53:48.484Z,0.00
2022-12-12T02:54:48.471Z,0.00
2022-12-12T02:55:48.485Z,0.00
2022-12-12T02:56:48.447Z,0.00
2022-12-12T02:57:48.431Z,0.00
2022-12-12T02:58:48.428Z,0.00
2022-12-12T02:59:48.433Z,0.00
2022-12-12T03:00:48.445Z,0.00
2022-12-12T03:01:48.397Z,0.00
2022-12-12T03:02:48.398Z,0.00
2022-12-12T03:03:48.376Z,0.00
2022-12-12T03:04:48.375Z,0.00
2022-12-12T03:05:48.337Z,0.00
2022-12-12T03:06:48.332Z,0.00
2022-12-12T03:07:48.389Z,0.00
2022-12-12T03:08:48.316Z,0.00
2022-12-12T03:09:48.364Z,0.00
2022-12-12T03:10:48.287Z,0.00
2022-12-12T03:11:48.278Z,0.00
2022-12-12T03:12:48.279Z,0.00
2022-12-12T03:13:48.297Z,0.00
2022-12-12T03:14:48.262Z,0.00
2022-12-12T03:15:48.236Z,0.00
2022-12-12T03:16:48.239Z,0.00
2022-12-12T03:17:48.227Z,0.00
2022-12-12T03:18:48.241Z,0.00
2022-12-12T03:19:48.336Z,0.00
2022-12-12T03:20:48.188Z,0.00
2022-12-12T03:21:48.200Z,0.00
2022-12-12T03:22:48.153Z,0.00
2022-12-12T03:23:48.149Z,0.00
2022-12-12T03:24:48.226Z,0.00
2022-12-12T03:25:48.115Z,0.00
2022-12-12T03:26:48.104Z,0.00
2022-12-12T03:27:48.108Z,0.00
2022-12-12T03:28:48.089Z,0.00
2022-12-12T03:29:48.149Z,0.00
2022-12-12T03:30:48.190Z,0.00
2022-12-12T03:31:48.168Z,0.00
2022-12-12T03:32:48.041Z,0.00
2022-12-12T03:33:48.036Z,0.00
2022-12-12T03:34:48.022Z,0.00
2022-12-12T03:35:48.051Z,0.00
2022-12-12T03:36:47.999Z,0.00
2022-12-12T03:37:47.992Z,0.00
2022-12-12T03:38:47.979Z,0.00
2022-12-12T03:39:47.977Z,0.00
2022-12-12T03:40:47.970Z,0.00
2022-12-12T03:41:47.988Z,0.00
2022-12-12T03:42:47.937Z,0.00
2022-12-12T03:43:47.930Z,0.00
2022-12-12T03:44:48.886Z,0.00
2022-12-12T03:45:47.978Z,0.00
2022-12-12T03:46:47.919Z,0.00
2022-12-12T03:47:47.884Z,0.00
2022-12-12T03:48:47.902Z,0.00
2022-12-12T03:49:47.886Z,0.00
2022-12-12T03:50:47.849Z,0.00
2022-12-12T03:51:47.863Z,0.00
2022-12-12T03:52:47.919Z,0.00
2022-12-12T03:53:47.843Z,0.00
2022-12-12T03:54:47.825Z,0.00
2022-12-12T03:55:47.814Z,0.00
2022-12-12T03:56:47.814Z,0.00
2022-12-12T03:57:47.781Z,0.00
2022-12-12T03:58:47.756Z,0.00
2022-12-12T03:59:47.769Z,0.00
2022-12-12T04:00:47.778Z,0.00
2022-12-12T04:01:47.735Z,0.00
2022-12-12T04:02:47.755Z,0.00
2022-12-12T04:03:47.727Z,0.00
2022-12-12T04:04:47.715Z,0.00
2022-12-12T04:05:47.684Z,0.00
2022-12-12T04:06:47.674Z,0.00
2022-12-12T04:07:48.630Z,0.00
2022-12-12T04:08:47.686Z,0.00
2022-12-12T04:09:47.687Z,0.00
2022-12-12T04:10:47.625Z,0.00
2022-12-12T04:11:47.620Z,0.00
2022-12-12T04:12:47.609Z,0.00
2022-12-12T04:13:47.648Z,0.00
2022-12-12T04:14:47.629Z,0.00
2022-12-12T04:15:47.591Z,0.00
2022-12-12T04:16:47.615Z,0.00
2022-12-12T04:17:47.561Z,0.00
2022-12-12T04:18:47.538Z,0.00
2022-12-12T04:19:47.661Z,0.00
2022-12-12T04:20:47.555Z,0.00
2022-12-12T04:21:47.509Z,0.00
2022-12-12T04:22:47.502Z,0.00
2022-12-12T04:23:47.493Z,0.00
2022-12-12T04:24:47.477Z,0.00
2022-12-12T04:25:47.467Z,0.00
2022-12-12T04:26:47.469Z,0.00
2022-12-12T04:27:47.451Z,0.00
2022-12-12T04:28:47.435Z,0.00
2022-12-12T04:29:47.429Z,0.00
2022-12-12T04:30:47.425Z,0.00
2022-12-12T04:31:47.447Z,0.00
2022-12-12T04:32:47.419Z,0.00
2022-12-12T04:33:47.391Z,0.00
2022-12-12T04:34:47.368Z,0.00
2022-12-12T04:35:47.369Z,0.00
2022-12-12T04:36:47.352Z,0.00
2022-12-12T04:37:47.363Z,0.00
2022-12-12T04:38:47.321Z,0.00
2022-12-12T04:39:47.311Z,0.00
2022-12-12T04:40:47.324Z,0.00
2022-12-12T04:41:47.293Z,0.00
2022-12-12T04:42:47.290Z,0.00
2022-12-12T04:43:47.277Z,0.00
2022-12-12T04:44:47.250Z,0.00
2022-12-12T04:45:47.349Z,0.00
2022-12-12T04:46:47.235Z,0.00
2022-12-12T04:47:47.227Z,0.00
2022-12-12T04:48:47.871Z,0.00
2022-12-12T04:49:47.212Z,0.00
2022-12-12T04:50:47.189Z,0.00
2022-12-12T04:51:47.222Z,0.00
2022-12-12T04:52:47.183Z,0.00
2022-12-12T04:53:48.162Z,0.00
2022-12-12T04:54:47.154Z,0.00
2022-12-12T04:55:47.143Z,0.00
2022-12-12T04:56:47.122Z,0.00
2022-12-12T04:57:47.122Z,0.00
2022-12-12T04:58:47.120Z,0.00
2022-12-12T04:59:47.114Z,0.00
2022-12-12T05:00:47.142Z,0.00
2022-12-12T05:01:52.815Z,0.00
2022-12-12T05:02:48.133Z,0.00
2022-12-12T05:03:47.062Z,0.00
2022-12-12T05:04:47.155Z,0.00
2022-12-12T05:05:47.054Z,0.00
2022-12-12T05:06:47.032Z,0.00
2022-12-12T05:07:47.046Z,0.00
2022-12-12T05:08:47.025Z,0.00
2022-12-12T05:09:47.013Z,0.00
2022-12-12T05:10:47.001Z,0.00
2022-12-12T05:11:46.975Z,0.00
2022-12-12T05:12:46.955Z,0.00
2022-12-12T05:13:46.958Z,0.00
2022-12-12T05:14:46.963Z,0.00
2022-12-12T05:15:46.979Z,0.00
2022-12-12T05:16:46.942Z,0.00
2022-12-12T05:17:46.955Z,0.00
2022-12-12T05:18:46.898Z,0.00
2022-12-12T05:19:46.876Z,0.00
2022-12-12T05:20:46.866Z,0.00
2022-12-12T05:21:47.076Z,0.00
2022-12-12T05:22:46.847Z,0.00
2022-12-12T05:23:46.845Z,0.00
2022-12-12T05:24:46.843Z,0.00
2022-12-12T05:25:46.848Z,0.00
2022-12-12T05:26:46.809Z,0.00
2022-12-12T05:27:47.256Z,0.00
2022-12-12T05:28:47.738Z,0.00
2022-12-12T05:29:46.806Z,0.00
2022-12-12T05:30:46.839Z,0.00
2022-12-12T05:31:46.767Z,0.00
2022-12-12T05:32:46.767Z,0.00
2022-12-12T05:33:46.779Z,0.00
2022-12-12T05:34:46.733Z,0.00
2022-12-12T05:35:46.716Z,0.00
2022-12-12T05:36:46.740Z,0.00
2022-12-12T05:37:51.733Z,0.00
2022-12-12T05:38:47.703Z,0.00
2022-12-12T05:39:46.671Z,0.00
2022-12-12T05:40:46.652Z,0.00
2022-12-12T05:41:46.642Z,0.00
2022-12-12T05:42:46.678Z,0.00
2022-12-12T05:43:46.666Z,0.00
2022-12-12T05:44:46.719Z,0.00
2022-12-12T05:45:46.676Z,0.00
2022-12-12T05:46:46.596Z,0.00
2022-12-12T05:47:47.367Z,0.00
2022-12-12T05:48:46.608Z,0.00
2022-12-12T05:49:47.374Z,0.00
2022-12-12T05:50:47.510Z,0.00
2022-12-12T05:51:46.575Z,0.00
2022-12-12T05:52:46.528Z,0.00
2022-12-12T05:53:46.596Z,0.00
2022-12-12T05:54:46.501Z,0.00
2022-12-12T05:55:46.505Z,0.00
2022-12-12T05:56:46.493Z,0.00
2022-12-12T05:57:46.490Z,0.00
2022-12-12T05:58:46.489Z,0.00
2022-12-12T05:59:46.447Z,0.00
2022-12-12T06:00:46.435Z,0.00
2022-12-12T06:01:46.432Z,0.00
2022-12-12T06:02:46.566Z,0.00
2022-12-12T06:03:46.478Z,0.00
2022-12-12T06:04:46.977Z,0.00
2022-12-12T06:05:46.401Z,0.00
2022-12-12T06:06:46.393Z,0.00
2022-12-12T06:07:46.414Z,0.00
2022-12-12T06:08:46.410Z,0.00
2022-12-12T06:09:46.431Z,0.00
2022-12-12T06:10:46.338Z,0.00
2022-12-12T06:11:46.343Z,0.00
2022-12-12T06:12:46.308Z,0.00
2022-12-12T06:13:46.337Z,0.00
2022-12-12T06:14:46.284Z,0.00
2022-12-12T06:15:46.972Z,0.00
2022-12-12T06:16:46.282Z,0.00
2022-12-12T06:17:46.266Z,0.00
2022-12-12T06:18:46.268Z,0.00
2022-12-12T06:19:46.253Z,0.00
2022-12-12T06:20:46.214Z,0.00
2022-12-12T06:21:46.225Z,0.00
2022-12-12T06:22:52.022Z,0.00
2022-12-12T06:23:47.199Z,0.00
2022-12-12T06:24:46.376Z,0.00
2022-12-12T06:25:46.195Z,0.00
2022-12-12T06:26:46.178Z,0.00
2022-12-12T06:27:46.147Z,0.00
2022-12-12T06:28:46.130Z,0.00
2022-12-12T06:29:46.231Z,0.00
2022-12-12T06:30:46.181Z,0.00
2022-12-12T06:31:46.147Z,0.00
2022-12-12T06:32:46.094Z,0.00
2022-12-12T06:33:46.661Z,0.00
2022-12-12T06:34:46.072Z,0.00
2022-12-12T06:35:46.587Z,0.00
2022-12-12T06:36:48.011Z,0.00
2022-12-12T06:37:46.051Z,0.00
2022-12-12T06:38:47.509Z,0.00
2022-12-12T06:39:46.017Z,0.00
2022-12-12T06:40:46.029Z,0.00
2022-12-12T06:41:46.981Z,0.00
2022-12-12T06:42:48.450Z,0.00
2022-12-12T06:43:45.992Z,0.00
2022-12-12T06:44:46.441Z,0.00
2022-12-12T06:45:46.123Z,0.00
2022-12-12T06:46:46.167Z,0.00
2022-12-12T06:47:46.298Z,0.00
2022-12-12T06:48:45.924Z,0.00
2022-12-12T06:49:45.913Z,0.00
2022-12-12T06:50:46.388Z,0.00
2022-12-12T06:51:45.886Z,0.00
2022-12-12T06:52:45.881Z,0.00
2022-12-12T06:53:45.905Z,0.00
2022-12-12T06:54:45.889Z,0.00
2022-12-12T06:55:45.856Z,0.00
2022-12-12T06:56:48.511Z,0.00
2022-12-12T06:57:45.843Z,0.00
2022-12-12T06:58:45.839Z,0.00
2022-12-12T06:59:45.813Z,0.00
2022-12-12T07:00:45.814Z,0.00
2022-12-12T07:01:46.089Z,0.00
2022-12-12T07:02:45.820Z,0.00
2022-12-12T07:03:46.578Z,0.00
2022-12-12T07:04:45.773Z,0.00
2022-12-12T07:05:45.751Z,0.00
2022-12-12T07:06:45.721Z,0.00
2022-12-12T07:07:45.762Z,0.00
2022-12-12T07:08:45.717Z,0.00
2022-12-12T07:09:45.713Z,0.00
2022-12-12T07:10:45.673Z,0.00
2022-12-12T07:11:45.693Z,0.00
2022-12-12T07:12:47.867Z,0.00
2022-12-12T07:13:45.673Z,0.00
2022-12-12T07:14:45.639Z,0.00
2022-12-12T07:15:47.641Z,0.00
2022-12-12T07:16:47.065Z,0.00
2022-12-12T07:17:45.624Z,0.00
2022-12-12T07:18:45.591Z,0.00
2022-12-12T07:19:45.629Z,0.00
2022-12-12T07:20:45.601Z,0.00
2022-12-12T07:21:45.565Z,0.00
2022-12-12T07:22:45.554Z,0.00
2022-12-12T07:23:45.547Z,0.00
2022-12-12T07:24:45.557Z,0.00
2022-12-12T07:25:45.543Z,0.00
2022-12-12T07:26:45.536Z,0.00
2022-12-12T07:27:45.507Z,0.00
2022-12-12T07:28:45.484Z,0.00
2022-12-12T07:29:45.487Z,0.00
2022-12-12T07:30:45.551Z,0.00
2022-12-12T07:31:45.938Z,0.00
2022-12-12T07:32:45.446Z,0.00
2022-12-12T07:33:45.447Z,0.00
2022-12-12T07:34:46.892Z,0.00
2022-12-12T07:35:45.431Z,0.00
2022-12-12T07:36:45.416Z,0.00
2022-12-12T07:37:45.386Z,0.00
2022-12-12T07:38:45.380Z,0.00
2022-12-12T07:39:45.479Z,0.00
2022-12-12T07:40:45.406Z,0.00
2022-12-12T07:41:45.359Z,5.62
2022-12-12T07:42:45.344Z,5.62
2022-12-12T07:43:45.307Z,5.62
2022-12-12T07:44:45.319Z,5.62
2022-12-12T07:45:45.303Z,5.62
2022-12-12T07:46:45.363Z,5.62
2022-12-12T07:47:45.270Z,5.62
2022-12-12T07:48:45.271Z,5.62
2022-12-12T07:49:45.261Z,5.62
2022-12-12T07:50:45.250Z,5.62
2022-12-12T07:51:48.989Z,5.62
2022-12-12T07:52:45.238Z,5.62
2022-12-12T07:53:45.400Z,5.62
2022-12-12T07:54:46.673Z,5.62
2022-12-12T07:55:45.191Z,5.62
2022-12-12T07:56:45.281Z,5.62
2022-12-12T07:57:45.640Z,5.62
2022-12-12T07:58:45.166Z,11.25
2022-12-12T07:59:45.609Z,11.25
2022-12-12T08:00:45.142Z,11.25
2022-12-12T08:01:45.529Z,11.25
2022-12-12T08:02:45.182Z,11.25
2022-12-12T08:03:45.168Z,11.25
2022-12-12T08:04:45.123Z,11.25
2022-12-12T08:05:46.050Z,11.25
2022-12-12T08:06:45.092Z,11.25
2022-12-12T08:07:45.081Z,11.25
2022-12-12T08:08:45.063Z,11.25
2022-12-12T08:09:45.059Z,11.25
2022-12-12T08:10:45.035Z,11.25
2022-12-12T08:11:46.744Z,11.25
2022-12-12T08:12:45.165Z,11.25
2022-12-12T08:13:45.252Z,11.25
2022-12-12T08:14:45.282Z,11.25
2022-12-12T08:15:45.029Z,16.88
2022-12-12T08:16:45.044Z,16.88
2022-12-12T08:17:44.953Z,16.88
2022-12-12T08:18:44.954Z,16.88
2022-12-12T08:19:44.920Z,16.88
2022-12-12T08:20:44.953Z,16.88
2022-12-12T08:21:44.903Z,16.88
2022-12-12T08:22:44.942Z,16.88
2022-12-12T08:23:44.950Z,16.88
2022-12-12T08:24:44.883Z,16.88
2022-12-12T08:25:44.872Z,16.88
2022-12-12T08:26:44.852Z,16.88
2022-12-12T08:27:44.845Z,16.88
2022-12-12T08:28:44.858Z,16.88
2022-12-12T08:29:45.790Z,16.88
2022-12-12T08:30:44.862Z,16.88
2022-12-12T08:31:44.805Z,16.88
2022-12-12T08:32:44.798Z,16.88
2022-12-12T08:33:44.804Z,16.88
2022-12-12T08:34:44.794Z,16.88
2022-12-12T08:35:44.756Z,22.50
2022-12-12T08:36:44.749Z,22.50
2022-12-12T08:37:44.848Z,22.50
2022-12-12T08:38:44.727Z,22.50
2022-12-12T08:39:44.768Z,22.50
2022-12-12T08:40:44.712Z,22.50
2022-12-12T08:41:46.666Z,22.50
2022-12-12T08:42:44.694Z,22.50
2022-12-12T08:43:44.677Z,22.50
2022-12-12T08:44:45.623Z,22.50
2022-12-12T08:45:44.680Z,22.50
2022-12-12T08:46:44.736Z,22.50
2022-12-12T08:47:44.617Z,22.50
2022-12-12T08:48:44.615Z,22.50
2022-12-12T08:49:44.626Z,22.50
2022-12-12T08:50:44.604Z,22.50
2022-12-12T08:51:44.593Z,22.50
2022-12-12T08:52:44.586Z,22.50
2022-12-12T08:53:45.548Z,22.50
2022-12-12T08:54:44.559Z,22.50
2022-12-12T08:55:44.549Z,22.50
2022-12-12T08:56:44.528Z,22.50
2022-12-12T08:57:44.629Z,28.12
2022-12-12T08:58:44.544Z,28.12
2022-12-12T08:59:44.567Z,28.12
2022-12-12T09:00:44.513Z,28.12
2022-12-12T09:01:44.594Z,28.12
2022-12-12T09:02:44.660Z,28.12
2022-12-12T09:03:44.504Z,28.12
2022-12-12T09:04:44.450Z,28.12
2022-12-12T09:05:44.442Z,28.12
2022-12-12T09:06:44.427Z,28.12
2022-12-12T09:07:44.446Z,28.12
2022-12-12T09:08:44.428Z,28.12
2022-12-12T09:09:44.442Z,28.12
2022-12-12T09:10:44.380Z,28.12
2022-12-12T09:11:44.419Z,28.12
2022-12-12T09:12:44.373Z,28.12
2022-12-12T09:13:44.334Z,28.12
2022-12-12T09:14:44.342Z,28.12
2022-12-12T09:15:44.331Z,28.12
2022-12-12T09:16:44.345Z,28.12
2022-12-12T09:17:44.799Z,28.12
2022-12-12T09:18:48.976Z,28.12
2022-12-12T09:19:44.326Z,28.12
2022-12-12T09:20:44.392Z,28.12
2022-12-12T09:21:44.265Z,28.12
2022-12-12T09:22:44.640Z,28.12
2022-12-12T09:23:44.291Z,28.12
2022-12-12T09:24:44.263Z,28.12
2022-12-12T09:25:44.235Z,28.12
2022-12-12T09:26:44.221Z,28.12
2022-12-12T09:27:44.206Z,28.12
2022-12-12T09:28:44.171Z,33.75
2022-12-12T09:29:44.206Z,33.75
2022-12-12T09:30:44.182Z,33.75
2022-12-12T09:31:44.268Z,33.75
2022-12-12T09:32:44.143Z,33.75
2022-12-12T09:33:44.209Z,33.75
2022-12-12T09:34:44.814Z,33.75
2022-12-12T09:35:44.094Z,33.75
2022-12-12T09:36:44.105Z,33.75
2022-12-12T09:37:44.083Z,33.75
2022-12-12T09:38:44.109Z,33.75
2022-12-12T09:39:44.119Z,33.75
2022-12-12T09:40:44.058Z,33.75
2022-12-12T09:41:44.075Z,33.75
2022-12-12T09:42:44.031Z,33.75
2022-12-12T09:43:44.024Z,33.75
2022-12-12T09:44:44.020Z,33.75
2022-12-12T09:45:44.063Z,33.75
2022-12-12T09:46:43.987Z,33.75
2022-12-12T09:47:43.965Z,33.75
2022-12-12T09:48:44.008Z,33.75
2022-12-12T09:49:44.257Z,33.75
2022-12-12T09:50:43.940Z,33.75
2022-12-12T09:51:43.940Z,33.75
2022-12-12T09:52:43.931Z,33.75
2022-12-12T09:53:43.914Z,33.75
2022-12-12T09:54:43.936Z,33.75
2022-12-12T09:55:43.925Z,33.75
2022-12-12T09:56:43.877Z,33.75
2022-12-12T09:57:43.867Z,33.75
2022-12-12T09:58:49.083Z,33.75
2022-12-12T09:59:44.853Z,33.75
2022-12-12T10:00:43.906Z,33.75
2022-12-12T10:01:43.838Z,33.75
2022-12-12T10:02:43.819Z,33.75
2022-12-12T10:03:43.803Z,33.75
2022-12-12T10:04:49.387Z,33.75
2022-12-12T10:05:44.816Z,33.75
2022-12-12T10:06:43.788Z,33.75
2022-12-12T10:07:43.769Z,39.38
2022-12-12T10:08:43.755Z,39.38
2022-12-12T10:09:43.733Z,39.38
2022-12-12T10:10:43.770Z,39.38
2022-12-12T10:11:43.779Z,39.38
2022-12-12T10:12:43.710Z,39.38
2022-12-12T10:13:43.688Z,39.38
2022-12-12T10:14:43.690Z,39.38
2022-12-12T10:15:43.668Z,39.38
2022-12-12T10:16:43.717Z,39.38
2022-12-12T10:17:43.689Z,39.38
2022-12-12T10:18:44.663Z,39.38
2022-12-12T10:19:43.895Z,39.38
2022-12-12T10:20:43.680Z,39.38
2022-12-12T10:21:43.599Z,39.38
2022-12-12T10:22:43.639Z,39.38
2022-12-12T10:23:43.582Z,39.38
2022-12-12T10:24:43.621Z,39.38
2022-12-12T10:25:43.565Z,39.38
2022-12-12T10:26:43.566Z,39.38
2022-12-12T10:27:43.587Z,39.38
2022-12-12T10:28:44.192Z,39.38
2022-12-12T10:29:43.532Z,39.38
2022-12-12T10:30:43.544Z,39.38
2022-12-12T10:31:43.547Z,39.38
2022-12-12T10:32:43.549Z,39.38
2022-12-12T10:33:43.547Z,39.38
2022-12-12T10:34:43.480Z,39.38
2022-12-12T10:35:43.494Z,39.38
2022-12-12T10:36:43.521Z,39.38
2022-12-12T10:37:43.510Z,39.38
2022-12-12T10:38:43.474Z,39.38
2022-12-12T10:39:44.356Z,39.38
2022-12-12T10:40:43.465Z,39.38
2022-12-12T10:41:43.485Z,39.38
2022-12-12T10:42:43.446Z,39.38
2022-12-12T10:43:43.445Z,39.38
2022-12-12T10:44:47.357Z,39.38
2022-12-12T10:45:43.531Z,39.38
2022-12-12T10:46:43.440Z,39.38
2022-12-12T10:47:43.436Z,39.38
2022-12-12T10:48:43.316Z,39.38
2022-12-12T10:49:43.343Z,39.38
2022-12-12T10:50:43.431Z,39.38
2022-12-12T10:51:43.377Z,39.38
2022-12-12T10:52:43.388Z,39.38
2022-12-12T10:53:44.306Z,39.38
2022-12-12T10:54:43.326Z,39.38
2022-12-12T10:55:43.327Z,39.38
2022-12-12T10:56:43.261Z,39.38
2022-12-12T10:57:43.311Z,39.38
2022-12-12T10:58:43.268Z,45.00
2022-12-12T10:59:44.211Z,45.00
2022-12-12T11:00:43.213Z,45.00
2022-12-12T11:02:08.998Z,45.00
2022-12-12T11:02:44.354Z,45.00
2022-12-12T11:03:43.529Z,45.00
2022-12-12T11:04:43.159Z,45.00
2022-12-12T11:05:43.137Z,45.00
2022-12-12T11:06:43.119Z,45.00
2022-12-12T11:07:43.170Z,45.00
2022-12-12T11:08:43.141Z,45.00
2022-12-12T11:09:43.100Z,45.00
2022-12-12T11:10:43.082Z,45.00
2022-12-12T11:11:43.062Z,45.00
2022-12-12T11:12:43.047Z,45.00
2022-12-12T11:13:43.060Z,45.00
2022-12-12T11:14:43.081Z,45.00
2022-12-12T11:15:43.022Z,45.00
2022-12-12T11:16:43.059Z,45.00
2022-12-12T11:17:43.082Z,45.00
2022-12-12T11:18:42.978Z,45.00
2022-12-12T11:19:43.021Z,45.00
2022-12-12T11:20:43.223Z,45.00
2022-12-12T11:21:42.952Z,45.00
2022-12-12T11:22:42.940Z,45.00
2022-12-12T11:23:42.920Z,45.00
2022-12-12T11:24:43.897Z,45.00
2022-12-12T11:25:43.026Z,45.00
2022-12-12T11:26:42.898Z,45.00
2022-12-12T11:27:42.883Z,45.00
2022-12-12T11:28:42.897Z,45.00
2022-12-12T11:29:42.863Z,45.00
2022-12-12T11:30:42.892Z,45.00
2022-12-12T11:31:42.868Z,45.00
2022-12-12T11:32:42.839Z,45.00
2022-12-12T11:33:42.827Z,45.00
2022-12-12T11:34:42.895Z,45.00
2022-12-12T11:35:47.501Z,45.00
2022-12-12T11:36:43.792Z,45.00
2022-12-12T11:37:42.794Z,50.62
2022-12-12T11:38:43.724Z,50.62
2022-12-12T11:39:42.792Z,45.00
2022-12-12T11:40:42.799Z,50.62
2022-12-12T11:41:42.743Z,50.62
2022-12-12T11:42:42.713Z,50.62
2022-12-12T11:43:42.726Z,50.62
2022-12-12T11:44:42.744Z,50.62
2022-12-12T11:45:42.732Z,50.62
2022-12-12T11:46:42.717Z,50.62
2022-12-12T11:47:42.673Z,50.62
2022-12-12T11:48:42.671Z,50.62
2022-12-12T11:49:42.661Z,50.62
2022-12-12T11:50:42.658Z,50.62
2022-12-12T11:51:42.666Z,50.62
2022-12-12T11:52:42.634Z,50.62
2022-12-12T11:53:42.612Z,50.62
2022-12-12T11:54:42.652Z,50.62
2022-12-12T11:55:42.581Z,50.62
2022-12-12T11:56:42.594Z,50.62
2022-12-12T11:57:42.590Z,50.62
2022-12-12T11:58:42.545Z,45.00
2022-12-12T11:59:42.601Z,50.62
2022-12-12T12:00:42.528Z,50.62
2022-12-12T12:01:42.537Z,50.62
2022-12-12T12:02:44.477Z,50.62
2022-12-12T12:03:42.535Z,50.62
2022-12-12T12:04:42.591Z,50.62
2022-12-12T12:05:42.512Z,50.62
2022-12-12T12:06:42.687Z,50.62
2022-12-12T12:07:42.493Z,50.62
2022-12-12T12:08:42.462Z,50.62
2022-12-12T12:09:42.569Z,50.62
2022-12-12T12:10:42.445Z,50.62
2022-12-12T12:11:42.428Z,50.62
2022-12-12T12:12:42.403Z,50.62
2022-12-12T12:13:42.408Z,50.62
2022-12-12T12:14:42.403Z,50.62
2022-12-12T12:15:42.376Z,56.25
2022-12-12T12:16:42.420Z,56.25
2022-12-12T12:17:42.326Z,61.88
2022-12-12T12:18:42.338Z,73.12
2022-12-12T12:19:42.328Z,67.50
2022-12-12T12:20:42.340Z,50.62
2022-12-12T12:21:42.310Z,56.25
2022-12-12T12:22:42.279Z,56.25
2022-12-12T12:23:46.197Z,56.25
2022-12-12T12:24:43.272Z,56.25
2022-12-12T12:25:42.268Z,56.25
2022-12-12T12:26:42.290Z,56.25
2022-12-12T12:27:42.238Z,56.25
2022-12-12T12:28:42.221Z,56.25
2022-12-12T12:29:42.241Z,61.88
2022-12-12T12:30:42.247Z,106.88
2022-12-12T12:31:42.190Z,123.75
2022-12-12T12:32:42.209Z,78.75
2022-12-12T12:33:42.170Z,78.75
2022-12-12T12:34:42.157Z,90.00
2022-12-12T12:35:42.290Z,101.25
2022-12-12T12:36:42.130Z,112.50
2022-12-12T12:37:43.072Z,118.12
2022-12-12T12:38:42.969Z,101.25
2022-12-12T12:39:42.229Z,90.00
2022-12-12T12:40:42.096Z,106.88
2022-12-12T12:41:42.075Z,84.38
2022-12-12T12:42:47.787Z,67.50
2022-12-12T12:43:43.116Z,61.88
2022-12-12T12:44:42.134Z,61.88
2022-12-12T12:45:42.077Z,56.25
2022-12-12T12:46:42.012Z,56.25
2022-12-12T12:47:42.023Z,56.25
2022-12-12T12:48:41.996Z,61.88
2022-12-12T12:49:42.013Z,61.88
2022-12-12T12:50:41.974Z,61.88
2022-12-12T12:51:45.605Z,61.88
2022-12-12T12:52:42.956Z,61.88
2022-12-12T12:53:41.934Z,56.25
2022-12-12T12:54:41.965Z,61.88
2022-12-12T12:55:42.604Z,56.25
2022-12-12T12:56:43.991Z,61.88
2022-12-12T12:57:41.927Z,61.88
2022-12-12T12:58:41.879Z,61.88
2022-12-12T12:59:41.877Z,61.88
2022-12-12T13:00:41.871Z,56.25
2022-12-12T13:01:41.974Z,61.88
2022-12-12T13:02:42.826Z,61.88
2022-12-12T13:03:41.846Z,61.88
2022-12-12T13:04:41.828Z,56.25
2022-12-12T13:05:41.816Z,56.25
2022-12-12T13:06:41.835Z,50.62
2022-12-12T13:07:41.794Z,50.62